Albany, NY

6:53 AM EDT on August 27, 2014 (GMT -0400)
WNYT TV - Menands | Change Station
CLOSE
Current Station
Personal Weather Station
Location: 715 North Pearl Street Albany, NY
Elevation: 50 ft
Nearby Weather Stations

Elev 50 ft 42.68 °N, 73.74 °W | Updated 5 seconds ago

Mostly Cloudy
Mostly Cloudy
69.0 °F
Feels Like 69.0 °F
N
3.0
Wind Variable Wind from ESE
Gusts 4.0 mph

Today
High -- | Low -- °F
--% Chance of Precip.
Yesterday
High -- | Low -- °F
Precip. -- in
6:14 AM 7:37 PM
Waxing Crescent, 3% visible
Pressure 30.00 in
Visibility 10.0 miles
Clouds Scattered Clouds 4700 ft
Mostly Cloudy 25000 ft
Dew Point 66 °F
Humidity 91%
Rainfall 0.00 in
Snow Depth Not available.
UV 0 out of 12
Pollen 9.50 out of 12
PM2.5 Moderate
Flu Activity Not available.
METAR KALB 270951Z 18005KT 10SM SCT047 BKN250 20/17 A3001 RMK AO2 SLP159 T02000167

More Conditions Fewer Conditions

Pressure 30.00 in
Visibility 10.0 miles
Clouds Scattered Clouds 4700 ft
Mostly Cloudy 25000 ft
Dew Point 66 °F
Humidity 91%
Rainfall 0.00 in
Snow Depth Not available.
UV 0 out of 12
Pollen 9.50 out of 12
PM2.5 Moderate
Flu Activity Not available.
METAR KALB 270951Z 18005KT 10SM SCT047 BKN250 20/17 A3001 RMK AO2 SLP159 T02000167

More Conditions Fewer Conditions

10-Day Weather Forecast

Almanac

Astronomy

Aug. 27, 2014 Rise Set
Actual Time 6:14 AM EDT 7:37 PM EDT
Civil Twilight 5:45 AM EDT 8:07 PM EDT
Nautical Twilight 5:09 AM EDT 8:42 PM EDT
Astronomical Twilight 4:32 AM EDT 9:19 PM EDT
Moon 8:11 AM EDT 8:24 PM EDT
Length of Visible Light 14h 22m
Length of Day
13h 23m
Tomorrow will be 2m 44s shorter.
Waxing Crescent, 3% of the Moon is Illuminated
Today
Waxing Crescent
Sep 2
First Quarter
Sep 8
Full
Sep 15
Last Quarter
Sep 24
New

Today's Extremes

State Highs State Lows

Community

WunderPhotos

Upload Photos

1,747,666 photos uploaded!

Nearby

Air Quality

  Air Quality AQ Index Pollutant
Yesterday Moderate
OZONE
Yesterday Moderate
PM2.5
Current Moderate
PM2.5
Wednesday Good
OZONE
Wednesday Good
PM2.5

Snow Depth

Station Depth Elevation
No new snow has been reported.

Earthquake Activity

City Distance Mag. Time & Date
No recent earthquake activity has been reported nearby.
Minimum magnitude displayed is 2.5.

Coastal Water Temperatures

Place Temperature
No Stations Reporting

Nearby Weather Stations